createdAt,value
2019-03-08T00:02:25.343Z,13.10
2019-03-08T00:04:53.729Z,12.20
2019-03-08T00:07:22.187Z,12.70
2019-03-08T00:09:50.767Z,13.03
2019-03-08T00:12:19.244Z,14.10
2019-03-08T00:14:47.694Z,12.27
2019-03-08T00:17:16.080Z,13.00
2019-03-08T00:19:44.487Z,12.00
2019-03-08T00:22:12.935Z,12.20
2019-03-08T00:24:41.332Z,11.10
2019-03-08T00:27:09.750Z,10.47
2019-03-08T00:29:38.196Z,9.70
2019-03-08T00:32:06.610Z,9.90
2019-03-08T00:34:35.022Z,10.43
2019-03-08T00:37:03.403Z,12.60
2019-03-08T00:39:31.818Z,11.37
2019-03-08T00:42:00.204Z,9.87
2019-03-08T00:44:28.708Z,11.87
2019-03-08T00:46:57.199Z,12.33
2019-03-08T00:49:25.594Z,10.10
2019-03-08T00:51:53.992Z,8.23
2019-03-08T00:54:22.388Z,11.33
2019-03-08T00:56:50.788Z,8.80
2019-03-08T00:59:19.176Z,8.97
2019-03-08T01:01:47.632Z,10.17
2019-03-08T01:04:16.052Z,10.10
2019-03-08T01:06:44.444Z,9.23
2019-03-08T01:09:13.168Z,10.77
2019-03-08T01:11:41.561Z,13.17
2019-03-08T01:14:09.942Z,12.53
2019-03-08T01:16:38.330Z,11.23
2019-03-08T01:19:06.716Z,11.97
2019-03-08T01:21:35.127Z,9.77
2019-03-08T01:24:03.515Z,11.27
2019-03-08T01:26:31.961Z,11.07
2019-03-08T01:29:00.358Z,10.00
2019-03-08T01:31:28.744Z,11.67
2019-03-08T01:33:57.307Z,19.10
2019-03-08T01:36:25.698Z,11.67
2019-03-08T01:38:54.127Z,10.77
2019-03-08T01:41:22.583Z,10.50
2019-03-08T01:43:50.967Z,11.40
2019-03-08T01:46:19.349Z,8.53
2019-03-08T01:48:47.743Z,11.53
2019-03-08T01:51:16.135Z,9.43
2019-03-08T01:53:44.511Z,9.00
2019-03-08T01:56:12.895Z,7.97
2019-03-08T01:58:41.273Z,11.10
2019-03-08T02:01:09.758Z,11.13
2019-03-08T02:03:38.140Z,8.57
2019-03-08T02:06:06.606Z,8.43
2019-03-08T02:08:35.068Z,10.43
2019-03-08T02:11:03.524Z,8.87
2019-03-08T02:13:31.903Z,8.97
2019-03-08T02:16:00.293Z,10.40
2019-03-08T02:18:28.734Z,9.83
2019-03-08T02:21:06.256Z,7.50
2019-03-08T02:23:27.529Z,7.23
2019-03-08T02:25:55.910Z,6.37
2019-03-08T02:28:24.304Z,11.40
2019-03-08T02:30:52.684Z,9.40
2019-03-08T02:33:21.068Z,7.30
2019-03-08T02:35:49.453Z,9.80
2019-03-08T02:38:17.842Z,7.47
2019-03-08T02:40:46.402Z,9.10
2019-03-08T02:43:17.211Z,8.47
2019-03-08T02:45:45.580Z,7.90
2019-03-08T02:48:14.058Z,6.30
2019-03-08T02:50:42.645Z,6.30
2019-03-08T02:53:11.035Z,8.57
2019-03-08T02:55:39.426Z,7.00
2019-03-08T02:58:07.813Z,6.67
2019-03-08T03:00:41.923Z,8.07
2019-03-08T03:03:10.304Z,7.33
2019-03-08T03:05:38.705Z,6.67
2019-03-08T03:08:07.257Z,7.57
2019-03-08T03:10:35.650Z,6.67
2019-03-08T03:13:04.207Z,7.60
2019-03-08T03:15:32.597Z,7.97
2019-03-08T03:18:00.976Z,9.17
2019-03-08T03:20:29.370Z,7.23
2019-03-08T03:22:58.024Z,6.10
2019-03-08T03:25:26.406Z,8.63
2019-03-08T03:27:54.806Z,9.33
2019-03-08T03:30:23.275Z,9.60
2019-03-08T03:32:51.803Z,8.27
2019-03-08T03:35:20.249Z,7.53
2019-03-08T03:37:48.907Z,8.80
2019-03-08T03:40:18.842Z,7.03
2019-03-08T03:42:47.227Z,6.67
2019-03-08T03:45:20.420Z,6.50
2019-03-08T03:47:48.864Z,3.73
2019-03-08T03:50:18.553Z,3.50
2019-03-08T03:52:47.200Z,2.80
2019-03-08T03:55:17.718Z,4.23
2019-03-08T03:57:46.166Z,2.50
2019-03-08T04:00:19.786Z,3.33
2019-03-08T04:02:48.183Z,5.43
2019-03-08T04:05:16.643Z,4.87
2019-03-08T04:07:45.139Z,2.77
2019-03-08T04:10:15.357Z,4.63
2019-03-08T04:12:43.747Z,3.17
2019-03-08T04:15:16.385Z,2.13
2019-03-08T04:17:45.222Z,4.20
2019-03-08T04:20:15.238Z,3.53
2019-03-08T04:22:43.624Z,2.50
2019-03-08T04:25:13.243Z,2.80
2019-03-08T04:27:41.969Z,3.07
2019-03-08T04:30:21.236Z,3.53
2019-03-08T04:32:49.612Z,2.57
2019-03-08T04:35:18.065Z,2.50
2019-03-08T04:37:46.450Z,5.53
2019-03-08T04:40:15.204Z,3.17
2019-03-08T04:42:43.847Z,2.53
2019-03-08T04:45:13.968Z,4.70
2019-03-08T04:47:42.423Z,3.07
2019-03-08T04:50:17.266Z,3.60
2019-03-08T04:52:45.647Z,3.23
2019-03-08T04:55:16.899Z,2.47
2019-03-08T04:57:46.204Z,2.60
2019-03-08T05:00:17.338Z,4.63
2019-03-08T05:02:45.727Z,2.60
2019-03-08T05:05:14.194Z,4.30
2019-03-08T05:07:42.577Z,2.83
2019-03-08T05:10:16.078Z,1.97
2019-03-08T05:12:44.535Z,5.37
2019-03-08T05:15:13.234Z,4.23
2019-03-08T05:17:41.629Z,3.57
2019-03-08T05:20:10.951Z,3.97
2019-03-08T05:22:39.344Z,4.53
2019-03-08T05:25:10.216Z,2.83
2019-03-08T05:27:38.591Z,3.60
2019-03-08T05:30:13.140Z,3.10
2019-03-08T05:32:41.524Z,3.80
2019-03-08T05:35:10.743Z,6.70
2019-03-08T05:37:39.217Z,3.03
2019-03-08T05:40:10.819Z,3.43
2019-03-08T05:42:39.201Z,4.03
2019-03-08T05:45:09.521Z,3.47
2019-03-08T05:47:37.941Z,2.47
2019-03-08T05:50:10.917Z,4.90
2019-03-08T05:52:39.403Z,4.23
2019-03-08T05:55:09.623Z,3.13
2019-03-08T05:57:38.002Z,6.83
2019-03-08T06:00:11.771Z,3.47
2019-03-08T06:02:40.201Z,3.83
2019-03-08T06:05:08.722Z,4.57
2019-03-08T06:07:37.501Z,2.97
2019-03-08T06:10:26.948Z,5.37
2019-03-08T06:12:55.394Z,7.87
2019-03-08T06:15:23.873Z,4.07
2019-03-08T06:17:52.253Z,4.37
2019-03-08T06:20:20.637Z,4.13
2019-03-08T06:22:49.021Z,4.63
2019-03-08T06:25:17.404Z,5.27
2019-03-08T06:27:45.831Z,5.00
2019-03-08T06:30:14.593Z,5.60
2019-03-08T06:32:42.999Z,3.63
2019-03-08T06:35:11.667Z,3.87
2019-03-08T06:37:40.049Z,3.50
2019-03-08T06:40:13.527Z,5.10
2019-03-08T06:42:41.938Z,5.63
2019-03-08T06:45:13.056Z,5.90
2019-03-08T06:47:41.559Z,3.97
2019-03-08T06:50:12.075Z,4.20
2019-03-08T06:52:40.473Z,3.97
2019-03-08T06:55:11.508Z,5.67
2019-03-08T06:57:39.917Z,3.37
2019-03-08T07:00:19.961Z,3.00
2019-03-08T07:02:48.335Z,4.10
2019-03-08T07:05:16.735Z,4.13
2019-03-08T07:07:45.127Z,6.50
2019-03-08T07:10:13.591Z,3.93
2019-03-08T07:12:41.950Z,5.27
2019-03-08T07:15:10.402Z,2.50
2019-03-08T07:17:38.778Z,3.87
2019-03-08T07:20:09.532Z,3.13
2019-03-08T07:22:51.617Z,3.60
2019-03-08T07:25:37.913Z,5.33
2019-03-08T07:28:24.580Z,3.73
2019-03-08T07:30:57.952Z,3.10
2019-03-08T07:33:26.348Z,4.67
2019-03-08T07:36:12.863Z,2.73
2019-03-08T07:38:42.948Z,7.03
2019-03-08T07:41:13.021Z,3.17
2019-03-08T07:43:49.167Z,4.33
2019-03-08T07:46:31.263Z,4.40
2019-03-08T07:49:01.334Z,3.03
2019-03-08T07:51:31.381Z,2.90
2019-03-08T07:54:01.528Z,4.87
2019-03-08T07:56:31.862Z,4.10
2019-03-08T07:59:04.899Z,2.20
2019-03-08T08:01:40.686Z,3.10
2019-03-08T08:04:10.827Z,2.40
2019-03-08T08:06:52.876Z,1.77
2019-03-08T08:09:25.581Z,2.27
2019-03-08T08:12:12.082Z,5.53
2019-03-08T08:14:45.182Z,2.27
2019-03-08T08:17:17.928Z,2.83
2019-03-08T08:19:50.683Z,2.47
2019-03-08T08:22:20.715Z,2.27
2019-03-08T08:24:50.728Z,2.63
2019-03-08T08:27:20.746Z,1.90
2019-03-08T08:29:50.766Z,4.97
2019-03-08T08:32:23.206Z,2.23
2019-03-08T08:34:55.927Z,1.47
2019-03-08T08:37:26.013Z,1.40
2019-03-08T08:40:04.954Z,2.70
2019-03-08T08:42:52.858Z,2.47
2019-03-08T08:45:37.780Z,1.80
2019-03-08T08:48:15.057Z,2.83
2019-03-08T08:51:01.410Z,2.20
2019-03-08T08:53:34.547Z,3.73
2019-03-08T08:56:10.074Z,2.67
2019-03-08T08:58:40.093Z,1.87
2019-03-08T09:01:13.089Z,1.97
2019-03-08T09:03:43.107Z,1.53
2019-03-08T09:06:13.140Z,4.47
2019-03-08T09:08:48.894Z,1.77
2019-03-08T09:11:21.658Z,2.07
2019-03-08T09:13:54.825Z,2.90
2019-03-08T09:16:28.014Z,1.60
2019-03-08T09:19:04.010Z,1.83
2019-03-08T09:21:34.039Z,2.27
2019-03-08T09:24:06.791Z,1.83
2019-03-08T09:26:45.751Z,2.90
2019-03-08T09:29:18.223Z,1.53
2019-03-08T09:31:48.241Z,2.20
2019-03-08T09:34:30.183Z,1.53
2019-03-08T09:37:00.387Z,1.67
2019-03-08T09:39:33.053Z,1.80
2019-03-08T09:42:03.076Z,2.90
2019-03-08T09:44:39.505Z,2.00
2019-03-08T09:47:09.607Z,1.63
2019-03-08T09:49:39.648Z,1.77
2019-03-08T09:52:15.609Z,3.77
2019-03-08T09:54:48.790Z,2.37
2019-03-08T09:57:27.806Z,4.90
2019-03-08T10:00:03.778Z,4.93
2019-03-08T10:02:39.463Z,3.93
2019-03-08T10:05:26.125Z,3.37
2019-03-08T10:08:01.887Z,2.63
2019-03-08T10:10:34.576Z,2.55
2019-03-08T10:13:07.577Z,1.67
2019-03-08T10:15:37.597Z,1.37
2019-03-08T10:18:12.172Z,6.23
2019-03-08T10:20:48.074Z,2.83
2019-03-08T10:23:22.129Z,2.33
2019-03-08T10:25:55.169Z,3.70
2019-03-08T10:28:42.194Z,1.77
2019-03-08T10:31:27.357Z,4.33
2019-03-08T10:33:59.427Z,3.53
2019-03-08T10:36:32.195Z,2.07
2019-03-08T10:39:02.538Z,1.03
2019-03-08T10:41:36.177Z,4.10
2019-03-08T10:44:15.606Z,2.90
2019-03-08T10:46:52.273Z,1.93
2019-03-08T10:49:25.365Z,2.13
2019-03-08T10:51:56.529Z,0.83
2019-03-08T10:54:38.016Z,3.00
2019-03-08T10:57:11.333Z,1.13
2019-03-08T10:59:41.692Z,2.47
2019-03-08T11:02:18.783Z,2.00
2019-03-08T11:04:51.763Z,1.00
2019-03-08T11:07:35.134Z,4.80
2019-03-08T11:10:11.310Z,3.03
2019-03-08T11:12:53.946Z,2.37
2019-03-08T11:15:42.411Z,1.60
2019-03-08T11:18:12.569Z,2.47
2019-03-08T11:20:47.980Z,1.73
2019-03-08T11:23:21.981Z,2.70
2019-03-08T11:25:58.817Z,1.53
2019-03-08T11:28:44.838Z,4.63
2019-03-08T11:31:23.792Z,0.93
2019-03-08T11:34:03.348Z,1.10
2019-03-08T11:36:36.027Z,1.90
2019-03-08T11:39:09.185Z,4.33
2019-03-08T11:41:54.610Z,3.13
2019-03-08T11:44:31.419Z,2.73
2019-03-08T11:47:09.160Z,2.13
2019-03-08T11:49:42.539Z,3.33
2019-03-08T11:52:33.279Z,2.83
2019-03-08T11:55:21.122Z,2.37
2019-03-08T11:58:00.251Z,1.17
2019-03-08T12:00:46.142Z,1.97
2019-03-08T12:03:26.043Z,4.37
2019-03-08T12:06:13.630Z,3.20
2019-03-08T12:08:46.623Z,1.23
2019-03-08T12:11:34.876Z,2.03
2019-03-08T12:14:04.930Z,1.53
2019-03-08T12:16:50.221Z,4.07
2019-03-08T12:19:26.309Z,3.00
2019-03-08T12:21:58.054Z,4.00
2019-03-08T12:24:33.922Z,3.57
2019-03-08T12:27:19.437Z,1.93
2019-03-08T12:29:52.336Z,2.80
2019-03-08T12:32:38.469Z,4.37
2019-03-08T12:35:21.958Z,6.90
2019-03-08T12:37:52.691Z,3.87
2019-03-08T12:40:28.087Z,1.83
2019-03-08T12:43:07.646Z,2.23
2019-03-08T12:45:34.151Z,4.47
2019-03-08T12:48:23.810Z,2.40
2019-03-08T12:50:51.517Z,2.57
2019-03-08T12:53:38.686Z,0.70
2019-03-08T12:56:11.690Z,2.07
2019-03-08T12:58:56.902Z,2.07
2019-03-08T13:01:32.250Z,2.43
2019-03-08T13:04:12.124Z,2.50
2019-03-08T13:06:58.670Z,1.60
2019-03-08T13:09:40.961Z,2.20
2019-03-08T13:12:10.318Z,3.00
2019-03-08T13:14:39.016Z,3.07
2019-03-08T13:17:07.467Z,1.60
2019-03-08T13:19:38.604Z,2.00
2019-03-08T13:22:07.329Z,4.87
2019-03-08T13:24:37.152Z,2.77
2019-03-08T13:27:07.902Z,3.07
2019-03-08T13:29:39.126Z,2.53
2019-03-08T13:32:08.183Z,4.10
2019-03-08T13:34:40.130Z,4.03
2019-03-08T13:37:09.071Z,2.07
2019-03-08T13:39:41.063Z,3.27
2019-03-08T13:42:09.682Z,4.53
2019-03-08T13:44:38.065Z,2.93
2019-03-08T13:47:10.690Z,1.90
2019-03-08T13:49:44.346Z,1.23
2019-03-08T13:52:12.878Z,2.03
2019-03-08T13:54:41.257Z,1.33
2019-03-08T13:57:09.638Z,3.13
2019-03-08T13:59:38.273Z,4.20
2019-03-08T14:02:06.739Z,1.83
2019-03-08T14:04:35.132Z,1.70
2019-03-08T14:07:03.528Z,2.83
2019-03-08T14:09:31.933Z,2.57
2019-03-08T14:12:00.340Z,1.43
2019-03-08T14:14:28.806Z,1.33
2019-03-08T14:16:57.341Z,2.03
2019-03-08T14:19:25.752Z,2.40
2019-03-08T14:21:54.172Z,2.50
2019-03-08T14:24:22.564Z,3.87
2019-03-08T14:26:50.953Z,2.20
2019-03-08T14:29:22.270Z,2.30
2019-03-08T14:31:51.387Z,2.13
2019-03-08T14:34:19.800Z,2.47
2019-03-08T14:36:48.181Z,3.17
2019-03-08T14:39:16.552Z,3.63
2019-03-08T14:41:46.577Z,3.23
2019-03-08T14:44:19.623Z,2.67
2019-03-08T14:46:52.987Z,2.03
2019-03-08T14:49:24.172Z,1.20
2019-03-08T14:51:52.759Z,2.00
2019-03-08T14:54:21.442Z,1.67
2019-03-08T14:56:49.833Z,2.40
2019-03-08T14:59:18.222Z,4.90
2019-03-08T15:01:46.714Z,3.77
2019-03-08T15:04:15.089Z,1.73
2019-03-08T15:06:43.489Z,2.23
2019-03-08T15:09:12.635Z,2.20
2019-03-08T15:11:41.119Z,2.53
2019-03-08T15:14:09.506Z,2.50
2019-03-08T15:16:39.225Z,1.90
2019-03-08T15:19:08.076Z,5.70
2019-03-08T15:21:37.122Z,2.07
2019-03-08T15:24:06.241Z,3.93
2019-03-08T15:26:34.635Z,17.47
2019-03-08T15:29:03.083Z,35.97
2019-03-08T15:31:31.469Z,3.20
2019-03-08T15:33:59.887Z,4.57
2019-03-08T15:36:28.265Z,2.90
2019-03-08T15:38:58.804Z,5.80
2019-03-08T15:41:26.756Z,2.73
2019-03-08T15:43:55.215Z,3.57
2019-03-08T15:46:23.676Z,3.13
2019-03-08T15:48:53.053Z,2.43
2019-03-08T15:51:25.190Z,5.03
2019-03-08T15:53:54.334Z,4.73
2019-03-08T15:56:22.964Z,3.83
2019-03-08T15:58:51.358Z,1.73
2019-03-08T16:01:19.741Z,4.87
2019-03-08T16:03:48.131Z,3.37
2019-03-08T16:06:16.513Z,4.73
2019-03-08T16:08:45.088Z,1.60
2019-03-08T16:11:13.472Z,1.27
2019-03-08T16:13:41.938Z,3.27
2019-03-08T16:16:10.406Z,5.10
2019-03-08T16:18:40.237Z,1.90
2019-03-08T16:21:08.944Z,3.27
2019-03-08T16:23:39.041Z,2.13
2019-03-08T16:26:07.442Z,2.53
2019-03-08T16:28:36.041Z,2.03
2019-03-08T16:31:09.001Z,1.30
2019-03-08T16:33:45.002Z,1.70
2019-03-08T16:36:30.992Z,2.20
2019-03-08T16:39:06.886Z,1.98
2019-03-08T16:41:39.381Z,1.60
2019-03-08T16:44:11.900Z,2.77
2019-03-08T16:46:57.770Z,2.53
2019-03-08T16:49:27.558Z,2.33
2019-03-08T16:51:57.337Z,2.40
2019-03-08T16:54:36.060Z,3.07
2019-03-08T16:57:22.431Z,2.33
2019-03-08T17:00:01.349Z,6.30
2019-03-08T17:02:46.682Z,2.23
2019-03-08T17:05:19.356Z,2.30
2019-03-08T17:07:52.128Z,5.27
2019-03-08T17:10:27.834Z,4.20
2019-03-08T17:13:03.810Z,2.43
2019-03-08T17:15:55.329Z,1.83
2019-03-08T17:18:25.640Z,4.73
2019-03-08T17:21:13.867Z,3.43
2019-03-08T17:23:43.879Z,2.93
2019-03-08T17:26:13.902Z,5.07
2019-03-08T17:28:49.701Z,4.90
2019-03-08T17:31:19.728Z,4.30
2019-03-08T17:34:06.121Z,4.87
2019-03-08T17:36:38.829Z,5.17
2019-03-08T17:39:13.022Z,5.00
2019-03-08T17:42:01.215Z,4.50
2019-03-08T17:44:49.593Z,4.70
2019-03-08T17:47:19.609Z,3.47
2019-03-08T17:49:49.627Z,6.58
2019-03-08T17:52:35.971Z,3.40
2019-03-08T17:55:12.822Z,4.43
2019-03-08T17:58:00.966Z,2.83
2019-03-08T18:00:33.946Z,6.60
2019-03-08T18:03:03.969Z,4.37
2019-03-08T18:05:34.063Z,5.77
2019-03-08T18:08:16.018Z,3.63
2019-03-08T18:10:54.764Z,8.17
2019-03-08T18:13:27.466Z,6.07
2019-03-08T18:16:00.170Z,5.20
2019-03-08T18:18:30.196Z,3.07
2019-03-08T18:21:00.231Z,6.47
2019-03-08T18:23:30.291Z,4.17
2019-03-08T18:26:03.127Z,5.17
2019-03-08T18:28:33.137Z,6.10
2019-03-08T18:31:04.807Z,5.40
2019-03-08T18:33:41.613Z,5.07
2019-03-08T18:36:14.052Z,8.07
2019-03-08T18:38:59.873Z,6.43
2019-03-08T18:41:43.041Z,6.80
2019-03-08T18:44:18.723Z,4.40
2019-03-08T18:46:54.689Z,6.47
2019-03-08T18:49:33.725Z,7.20
2019-03-08T18:52:19.907Z,7.47
2019-03-08T18:54:52.826Z,5.27
2019-03-08T18:57:22.850Z,5.27
2019-03-08T19:00:08.258Z,7.50
2019-03-08T19:02:50.646Z,8.00
2019-03-08T19:05:35.939Z,7.70
2019-03-08T19:08:11.919Z,5.73
2019-03-08T19:10:51.264Z,6.83
2019-03-08T19:13:25.954Z,8.27
2019-03-08T19:15:56.091Z,7.03
2019-03-08T19:18:42.581Z,4.10
2019-03-08T19:21:24.618Z,3.93
2019-03-08T19:24:10.543Z,6.07
2019-03-08T19:26:55.691Z,7.17
2019-03-08T19:29:34.634Z,3.90
2019-03-08T19:32:22.580Z,4.23
2019-03-08T19:35:07.627Z,8.00
2019-03-08T19:37:46.486Z,10.27
2019-03-08T19:40:16.560Z,11.83
2019-03-08T19:43:04.678Z,10.90
2019-03-08T19:45:50.236Z,7.50
2019-03-08T19:48:29.395Z,6.83
2019-03-08T19:51:02.189Z,6.40
2019-03-08T19:53:50.140Z,6.40
2019-03-08T19:56:36.669Z,5.13
2019-03-08T19:59:18.808Z,8.33
2019-03-08T20:02:04.059Z,10.77
2019-03-08T20:04:34.204Z,9.70
2019-03-08T20:07:16.335Z,11.03
2019-03-08T20:09:55.674Z,8.13
2019-03-08T20:12:25.758Z,8.37
2019-03-08T20:14:58.294Z,6.23
2019-03-08T20:17:37.091Z,6.07
2019-03-08T20:20:22.011Z,5.37
2019-03-08T20:22:54.888Z,7.23
2019-03-08T20:25:24.908Z,6.87
2019-03-08T20:27:57.620Z,5.70
2019-03-08T20:30:27.707Z,6.80
2019-03-08T20:33:13.937Z,8.33
2019-03-08T20:35:44.002Z,9.33
2019-03-08T20:38:25.851Z,6.90
2019-03-08T20:40:55.928Z,7.67
2019-03-08T20:43:25.994Z,5.80
2019-03-08T20:46:07.870Z,5.07
2019-03-08T20:48:36.257Z,5.70
2019-03-08T20:51:04.639Z,6.90
2019-03-08T20:53:33.143Z,4.97
2019-03-08T20:56:01.573Z,5.40
2019-03-08T20:58:29.963Z,8.30
2019-03-08T21:00:58.500Z,6.77
2019-03-08T21:03:27.109Z,6.63
2019-03-08T21:05:56.801Z,9.57
2019-03-08T21:08:25.279Z,6.47
2019-03-08T21:10:54.663Z,12.17
2019-03-08T21:13:23.055Z,10.67
2019-03-08T21:15:51.587Z,14.73
2019-03-08T21:18:19.968Z,9.47
2019-03-08T21:20:48.460Z,6.80
2019-03-08T21:23:16.879Z,11.63
2019-03-08T21:25:45.382Z,6.70
2019-03-08T21:28:13.845Z,8.43
2019-03-08T21:30:42.243Z,8.33
2019-03-08T21:33:10.847Z,6.80
2019-03-08T21:35:39.432Z,4.47
2019-03-08T21:38:08.027Z,6.27
2019-03-08T21:40:36.554Z,6.60
2019-03-08T21:43:05.118Z,7.23
2019-03-08T21:45:33.491Z,11.27
2019-03-08T21:48:01.951Z,8.80
2019-03-08T21:50:31.566Z,7.70
2019-03-08T21:53:00.175Z,8.17
2019-03-08T21:55:28.563Z,8.77
2019-03-08T21:57:57.043Z,4.53
2019-03-08T22:00:27.229Z,7.50
2019-03-08T22:02:55.817Z,7.13
2019-03-08T22:05:25.920Z,9.10
2019-03-08T22:07:54.353Z,8.03
2019-03-08T22:10:30.627Z,5.97
2019-03-08T22:12:59.038Z,7.57
2019-03-08T22:15:27.517Z,6.97
2019-03-08T22:17:56.096Z,7.57
2019-03-08T22:20:24.630Z,7.63
2019-03-08T22:22:53.045Z,9.83
2019-03-08T22:25:23.737Z,6.00
2019-03-08T22:27:52.473Z,9.47
2019-03-08T22:30:21.512Z,5.07
2019-03-08T22:32:50.174Z,8.93
2019-03-08T22:35:18.711Z,5.47
2019-03-08T22:37:47.142Z,7.20
2019-03-08T22:40:15.709Z,8.57
2019-03-08T22:42:44.086Z,6.13
2019-03-08T22:45:12.848Z,8.07
2019-03-08T22:47:41.259Z,6.07
2019-03-08T22:50:14.863Z,6.00
2019-03-08T22:52:43.420Z,8.57
2019-03-08T22:55:13.759Z,6.77
2019-03-08T22:57:42.175Z,9.13
2019-03-08T23:00:27.040Z,6.30
2019-03-08T23:02:55.858Z,9.00
2019-03-08T23:05:24.713Z,6.07
2019-03-08T23:07:53.080Z,11.37
2019-03-08T23:10:21.476Z,8.27
2019-03-08T23:12:49.894Z,5.13
2019-03-08T23:15:18.496Z,8.33
2019-03-08T23:17:46.878Z,8.77
2019-03-08T23:20:15.265Z,8.83
2019-03-08T23:22:43.668Z,9.97
2019-03-08T23:25:12.055Z,9.73
2019-03-08T23:27:42.121Z,6.33
2019-03-08T23:30:12.624Z,8.07
2019-03-08T23:32:42.329Z,7.80
2019-03-08T23:35:10.770Z,9.03
2019-03-08T23:37:39.193Z,6.77
2019-03-08T23:40:08.752Z,6.77
2019-03-08T23:42:37.133Z,9.07
2019-03-08T23:45:07.567Z,8.83
2019-03-08T23:47:35.941Z,6.37
2019-03-08T23:50:06.257Z,5.73
2019-03-08T23:52:34.666Z,11.57
2019-03-08T23:55:03.254Z,7.07
2019-03-08T23:57:31.658Z,8.50
